Time;durP1;ratioP1;P1;durP2;ratioP2;P2;SDS_P1;SDS_P2;PMS_P1;PMS_P2;Temp;Humidity;BMP_temperature;BMP_pressure;BME280_temperature;BME280_humidity;BME280_pressure;Samples;Min_cycle;Max_cycle;Signal;HPM_P1;HPM_P2
2023/03/11 00:01:36;;;;;;;6.93;1.93;;;;;;;;;;5025067;28;20283;-69
2023/03/11 00:04:02;;;;;;;11.80;1.90;;;;;;;;;;5021550;28;20550;-70
2023/03/11 00:06:27;;;;;;;4.37;1.23;;;;;;;;;;5023297;28;20438;-70
2023/03/11 00:08:52;;;;;;;4.63;1.30;;;;;;;;;;5019364;28;20187;-70
2023/03/11 00:11:18;;;;;;;4.47;1.40;;;;;;;;;;5025517;28;20790;-69
2023/03/11 00:13:46;;;;;;;1.40;0.97;;;;;;;;;;5023754;28;20177;-70
2023/03/11 00:16:11;;;;;;;6.37;1.93;;;;;;;;;;5021703;28;20554;-70
2023/03/11 00:18:36;;;;;;;7.77;1.40;;;;;;;;;;5019795;28;20432;-69
2023/03/11 00:21:02;;;;;;;6.83;1.40;;;;;;;;;;5023838;28;20211;-70
2023/03/11 00:23:27;;;;;;;3.87;1.30;;;;;;;;;;5021804;28;20184;-69
2023/03/11 00:25:52;;;;;;;4.70;1.20;;;;;;;;;;5024272;28;20263;-70
2023/03/11 00:28:17;;;;;;;6.80;1.10;;;;;;;;;;5024600;28;20172;-70
2023/03/11 00:30:44;;;;;;;7.00;1.40;;;;;;;;;;5022848;28;20251;-70
2023/03/11 00:33:10;;;;;;;8.10;1.67;;;;;;;;;;5013562;28;20177;-70
2023/03/11 00:35:38;;;;;;;4.47;2.03;;;;;;;;;;5014360;28;20431;-70
2023/03/11 00:38:05;;;;;;;6.47;1.10;;;;;;;;;;5014003;28;20995;-69
2023/03/11 00:40:31;;;;;;;4.67;1.13;;;;;;;;;;5020107;28;20875;-70
2023/03/11 00:42:57;;;;;;;7.23;1.30;;;;;;;;;;5023499;28;20466;-70
2023/03/11 00:45:23;;;;;;;7.30;1.30;;;;;;;;;;5017439;28;20852;-70
2023/03/11 00:47:49;;;;;;;5.03;1.50;;;;;;;;;;5021777;28;20423;-70
2023/03/11 00:50:16;;;;;;;3.90;1.57;;;;;;;;;;5021524;28;20180;-69
2023/03/11 00:52:44;;;;;;;3.67;1.00;;;;;;;;;;5021702;28;20211;-70
2023/03/11 00:55:09;;;;;;;4.53;1.30;;;;;;;;;;5018478;28;20430;-69
2023/03/11 00:57:35;;;;;;;2.60;1.10;;;;;;;;;;5020070;28;20443;-70
2023/03/11 01:00:00;;;;;;;4.33;1.23;;;;;;;;;;5018751;28;20299;-70
2023/03/11 01:02:25;;;;;;;4.50;1.20;;;;;;;;;;5021913;28;20200;-70
2023/03/11 01:04:54;;;;;;;2.47;1.03;;;;;;;;;;5020981;28;20187;-69
2023/03/11 01:07:20;;;;;;;3.83;1.03;;;;;;;;;;5020197;28;20188;-70
2023/03/11 01:09:45;;;;;;;4.17;1.10;;;;;;;;;;5022959;28;20440;-70
2023/03/11 01:12:10;;;;;;;7.03;1.50;;;;;;;;;;5023916;28;20204;-70
2023/03/11 01:14:35;;;;;;;2.87;0.70;;;;;;;;;;5028542;28;20172;-70
2023/03/11 01:17:01;;;;;;;1.93;0.90;;;;;;;;;;5027543;28;20271;-70
2023/03/11 01:19:26;;;;;;;2.43;0.90;;;;;;;;;;5025735;28;20254;-70
2023/03/11 01:21:51;;;;;;;1.97;0.90;;;;;;;;;;5021978;28;21374;-70
2023/03/11 01:24:16;;;;;;;3.40;1.37;;;;;;;;;;5017018;28;20185;-70
2023/03/11 01:26:42;;;;;;;1.80;0.80;;;;;;;;;;5020773;28;20655;-69
2023/03/11 01:29:07;;;;;;;2.33;0.97;;;;;;;;;;5022772;28;20181;-70
2023/03/11 01:31:32;;;;;;;4.30;1.00;;;;;;;;;;5027923;28;20213;-70
2023/03/11 01:33:58;;;;;;;3.50;0.87;;;;;;;;;;5028672;28;20530;-70
2023/03/11 01:36:23;;;;;;;6.20;1.00;;;;;;;;;;5027512;28;20246;-70
2023/03/11 01:38:48;;;;;;;1.03;0.80;;;;;;;;;;5025959;28;20661;-70
2023/03/11 01:41:13;;;;;;;2.00;1.00;;;;;;;;;;5027166;28;20306;-70
2023/03/11 01:43:45;;;;;;;4.27;0.80;;;;;;;;;;5019791;28;20177;-70
2023/03/11 01:46:21;;;;;;;4.47;1.10;;;;;;;;;;5020308;28;20215;-69
2023/03/11 01:48:48;;;;;;;7.27;0.87;;;;;;;;;;5022828;28;20427;-70
2023/03/11 01:51:16;;;;;;;2.40;1.07;;;;;;;;;;5022625;28;21164;-69
2023/03/11 01:53:41;;;;;;;4.50;1.33;;;;;;;;;;5017360;28;20529;-69
2023/03/11 01:56:06;;;;;;;5.27;0.93;;;;;;;;;;5023687;28;20788;-70
2023/03/11 01:58:34;;;;;;;7.83;1.70;;;;;;;;;;5022741;28;20177;-70
2023/03/11 02:01:00;;;;;;;3.23;0.87;;;;;;;;;;5021324;28;20698;-70
2023/03/11 02:03:30;;;;;;;2.20;0.77;;;;;;;;;;5018885;28;20427;-70
2023/03/11 02:05:56;;;;;;;3.50;1.00;;;;;;;;;;5024532;28;20189;-70
2023/03/11 02:08:21;;;;;;;6.60;0.90;;;;;;;;;;5021015;28;20438;-70
2023/03/11 02:10:48;;;;;;;2.70;0.90;;;;;;;;;;5023238;28;20271;-70
2023/03/11 02:13:14;;;;;;;4.80;1.00;;;;;;;;;;5025116;28;20219;-70
2023/03/11 02:15:39;;;;;;;2.60;0.90;;;;;;;;;;5020620;28;20516;-70
2023/03/11 02:18:05;;;;;;;1.10;0.80;;;;;;;;;;5022289;28;20460;-70
2023/03/11 02:20:39;;;;;;;2.20;0.90;;;;;;;;;;5022783;28;20215;-70
2023/03/11 02:23:04;;;;;;;2.77;0.90;;;;;;;;;;5020303;28;20238;-70
2023/03/11 02:25:30;;;;;;;3.87;1.17;;;;;;;;;;5019867;28;20528;-70
2023/03/11 02:27:55;;;;;;;3.13;0.83;;;;;;;;;;5023094;28;20982;-70
2023/03/11 02:30:22;;;;;;;3.27;0.80;;;;;;;;;;5017265;28;20193;-70
2023/03/11 02:32:48;;;;;;;2.03;0.70;;;;;;;;;;5021660;28;20216;-69
2023/03/11 02:35:13;;;;;;;2.03;0.80;;;;;;;;;;5024692;28;20853;-70
2023/03/11 02:37:48;;;;;;;1.30;0.70;;;;;;;;;;5020981;28;20177;-70
2023/03/11 02:40:23;;;;;;;2.73;1.10;;;;;;;;;;5021612;28;20215;-70
2023/03/11 02:42:54;;;;;;;1.27;0.70;;;;;;;;;;5019659;28;20462;-69
2023/03/11 02:45:20;;;;;;;2.73;0.80;;;;;;;;;;5022752;28;20451;-70
2023/03/11 02:47:45;;;;;;;2.40;0.60;;;;;;;;;;5021743;28;20493;-70
2023/03/11 02:50:12;;;;;;;1.47;0.80;;;;;;;;;;5021863;28;20430;-70
2023/03/11 02:52:37;;;;;;;2.47;1.43;;;;;;;;;;5021887;28;20207;-70
2023/03/11 02:55:03;;;;;;;1.97;0.90;;;;;;;;;;5017366;28;20433;-71
2023/03/11 02:57:28;;;;;;;2.60;0.70;;;;;;;;;;5020659;28;20196;-70
2023/03/11 02:59:53;;;;;;;1.73;0.90;;;;;;;;;;5013527;28;20200;-70
2023/03/11 03:02:19;;;;;;;1.13;0.60;;;;;;;;;;5016646;28;20251;-70
2023/03/11 03:04:44;;;;;;;1.00;0.70;;;;;;;;;;5014273;28;20180;-70
2023/03/11 03:07:12;;;;;;;0.97;0.77;;;;;;;;;;5013772;28;20182;-71
2023/03/11 03:09:37;;;;;;;2.70;0.90;;;;;;;;;;5020048;28;20246;-70
2023/03/11 03:12:03;;;;;;;3.67;0.90;;;;;;;;;;5019341;28;20843;-71
2023/03/11 03:14:28;;;;;;;4.60;0.80;;;;;;;;;;5026003;28;20173;-71
2023/03/11 03:16:54;;;;;;;3.90;0.97;;;;;;;;;;5024342;28;20192;-71
2023/03/11 03:19:19;;;;;;;5.03;1.10;;;;;;;;;;5021511;28;20287;-70
2023/03/11 03:21:44;;;;;;;1.73;1.40;;;;;;;;;;5024491;28;20686;-70
2023/03/11 03:24:10;;;;;;;2.60;1.00;;;;;;;;;;5023363;28;20262;-71
2023/03/11 03:26:35;;;;;;;2.43;1.10;;;;;;;;;;5024587;28;20197;-71
2023/03/11 03:29:01;;;;;;;3.00;0.83;;;;;;;;;;5024641;28;20255;-71
2023/03/11 03:31:26;;;;;;;2.97;2.10;;;;;;;;;;5020830;28;20988;-71
2023/03/11 03:33:51;;;;;;;3.50;1.00;;;;;;;;;;5026527;28;20547;-71
2023/03/11 03:36:17;;;;;;;2.67;1.00;;;;;;;;;;5021947;28;20176;-71
2023/03/11 03:38:42;;;;;;;7.43;0.90;;;;;;;;;;5023831;28;20239;-70
2023/03/11 03:41:08;;;;;;;7.17;1.63;;;;;;;;;;5026123;28;20690;-70
2023/03/11 03:43:33;;;;;;;3.27;0.90;;;;;;;;;;5024887;28;20180;-70
2023/03/11 03:46:00;;;;;;;2.93;1.10;;;;;;;;;;5022106;28;20423;-70
2023/03/11 03:48:25;;;;;;;2.90;1.10;;;;;;;;;;5017591;28;20176;-71
2023/03/11 03:50:51;;;;;;;2.53;1.20;;;;;;;;;;5020503;28;20934;-71
2023/03/11 03:53:16;;;;;;;1.53;0.87;;;;;;;;;;5018912;28;20279;-71
2023/03/11 03:55:43;;;;;;;2.13;0.80;;;;;;;;;;5019181;28;20176;-70
2023/03/11 03:58:09;;;;;;;2.50;0.70;;;;;;;;;;5016811;28;20322;-70
2023/03/11 04:00:34;;;;;;;2.03;0.70;;;;;;;;;;5015006;28;21006;-70
2023/03/11 04:02:59;;;;;;;1.17;0.73;;;;;;;;;;5015761;28;20205;-71
2023/03/11 04:05:26;;;;;;;1.10;0.70;;;;;;;;;;5020100;28;20180;-71
2023/03/11 04:07:52;;;;;;;2.50;0.70;;;;;;;;;;5019646;28;20520;-71
2023/03/11 04:10:17;;;;;;;2.10;0.80;;;;;;;;;;5018171;28;20465;-70
2023/03/11 04:12:42;;;;;;;2.00;0.80;;;;;;;;;;5022764;28;20223;-70
2023/03/11 04:15:08;;;;;;;4.27;1.00;;;;;;;;;;5015222;28;20184;-70
2023/03/11 04:17:33;;;;;;;1.33;0.80;;;;;;;;;;5021343;28;20655;-70
2023/03/11 04:19:59;;;;;;;1.93;0.97;;;;;;;;;;5020720;28;20212;-70
2023/03/11 04:22:24;;;;;;;2.83;0.93;;;;;;;;;;5018785;28;20246;-70
2023/03/11 04:24:49;;;;;;;1.27;0.80;;;;;;;;;;5019476;28;20168;-70
2023/03/11 04:27:15;;;;;;;3.07;0.90;;;;;;;;;;5017661;28;20179;-70
2023/03/11 04:29:40;;;;;;;2.40;0.90;;;;;;;;;;5022040;28;20184;-70
2023/03/11 04:32:05;;;;;;;2.83;0.90;;;;;;;;;;5024934;28;20204;-70
2023/03/11 04:34:31;;;;;;;4.17;1.13;;;;;;;;;;5023184;28;20718;-70
2023/03/11 04:36:56;;;;;;;7.13;1.17;;;;;;;;;;5020945;28;20188;-70
2023/03/11 04:39:21;;;;;;;2.10;0.90;;;;;;;;;;5023179;28;20200;-69
2023/03/11 04:41:46;;;;;;;2.20;1.00;;;;;;;;;;5023601;28;20560;-69
2023/03/11 04:44:12;;;;;;;2.47;1.10;;;;;;;;;;5022064;28;20183;-68
2023/03/11 04:46:37;;;;;;;2.53;0.90;;;;;;;;;;5021145;28;20542;-69
2023/03/11 04:49:02;;;;;;;2.70;0.80;;;;;;;;;;5025108;28;20184;-69
2023/03/11 04:51:28;;;;;;;5.83;1.10;;;;;;;;;;5025176;28;20192;-69
2023/03/11 04:53:53;;;;;;;4.20;1.20;;;;;;;;;;5024508;28;20184;-69
2023/03/11 04:56:18;;;;;;;2.50;0.90;;;;;;;;;;5020073;28;20223;-69
2023/03/11 04:58:44;;;;;;;2.17;0.80;;;;;;;;;;5024237;28;20168;-68
2023/03/11 05:01:09;;;;;;;1.70;0.80;;;;;;;;;;5024510;28;20290;-68
2023/03/11 05:03:37;;;;;;;2.97;1.00;;;;;;;;;;5020567;28;20184;-69
2023/03/11 05:06:02;;;;;;;4.43;0.90;;;;;;;;;;5020882;28;20199;-69
2023/03/11 05:08:27;;;;;;;2.67;0.97;;;;;;;;;;5023851;28;20924;-69
2023/03/11 05:10:53;;;;;;;5.53;0.93;;;;;;;;;;5023600;28;20230;-69
2023/03/11 05:13:18;;;;;;;1.93;1.00;;;;;;;;;;5027383;28;20255;-69
2023/03/11 05:15:44;;;;;;;3.63;0.90;;;;;;;;;;5027299;28;20639;-68
2023/03/11 05:18:10;;;;;;;1.27;0.90;;;;;;;;;;5026942;28;20190;-69
2023/03/11 05:20:35;;;;;;;4.40;0.80;;;;;;;;;;5027523;28;20279;-69
2023/03/11 05:23:00;;;;;;;6.60;1.33;;;;;;;;;;5027512;28;20713;-69
2023/03/11 05:25:26;;;;;;;1.70;1.10;;;;;;;;;;5028184;28;20247;-69
2023/03/11 05:27:51;;;;;;;5.00;1.97;;;;;;;;;;5027164;28;20248;-69
2023/03/11 05:30:17;;;;;;;3.80;1.40;;;;;;;;;;5029552;28;20212;-69
2023/03/11 05:32:42;;;;;;;3.93;1.70;;;;;;;;;;5027182;28;20587;-69
2023/03/11 05:35:07;;;;;;;2.00;1.37;;;;;;;;;;5027311;28;20255;-69
2023/03/11 05:37:34;;;;;;;2.70;1.07;;;;;;;;;;5026033;28;20533;-69
2023/03/11 05:39:59;;;;;;;5.80;1.00;;;;;;;;;;5026033;28;20196;-68
2023/03/11 05:42:24;;;;;;;1.87;0.97;;;;;;;;;;5021800;28;20537;-69
2023/03/11 05:44:49;;;;;;;1.90;1.27;;;;;;;;;;5023884;28;20172;-69
2023/03/11 05:47:15;;;;;;;6.30;1.57;;;;;;;;;;5022700;28;20181;-69
2023/03/11 05:49:41;;;;;;;2.73;1.10;;;;;;;;;;5025518;28;20181;-68
2023/03/11 05:52:06;;;;;;;2.63;1.20;;;;;;;;;;5024922;28;20200;-69
2023/03/11 05:54:31;;;;;;;3.00;1.10;;;;;;;;;;5021748;28;20172;-68
2023/03/11 05:56:56;;;;;;;2.93;1.30;;;;;;;;;;5026802;28;20184;-69
2023/03/11 05:59:22;;;;;;;1.87;0.90;;;;;;;;;;5026901;28;20267;-69
2023/03/11 06:01:48;;;;;;;6.80;1.47;;;;;;;;;;5023263;28;20577;-69
2023/03/11 06:04:13;;;;;;;5.87;1.30;;;;;;;;;;5019271;28;20435;-68
2023/03/11 06:06:42;;;;;;;1.53;0.70;;;;;;;;;;5020537;28;20196;-68
2023/03/11 06:09:11;;;;;;;1.90;0.87;;;;;;;;;;5019207;28;20231;-68
2023/03/11 06:11:37;;;;;;;1.77;1.00;;;;;;;;;;5026813;28;20439;-68
2023/03/11 06:14:02;;;;;;;2.63;1.40;;;;;;;;;;5025997;28;20422;-68
2023/03/11 06:16:27;;;;;;;3.13;1.00;;;;;;;;;;5024279;28;20538;-68
2023/03/11 06:18:53;;;;;;;2.17;1.00;;;;;;;;;;5023668;28;20617;-68
2023/03/11 06:21:19;;;;;;;3.63;0.93;;;;;;;;;;5023803;28;20295;-68
2023/03/11 06:23:45;;;;;;;4.90;1.10;;;;;;;;;;5024611;28;20563;-68
2023/03/11 06:26:12;;;;;;;1.40;1.00;;;;;;;;;;5024765;28;20411;-68
2023/03/11 06:28:37;;;;;;;4.77;0.93;;;;;;;;;;5024112;28;20176;-68
2023/03/11 06:31:07;;;;;;;2.87;1.07;;;;;;;;;;5023101;28;20871;-68
2023/03/11 06:33:32;;;;;;;2.20;1.10;;;;;;;;;;5024236;28;20222;-68
2023/03/11 06:35:58;;;;;;;3.03;1.30;;;;;;;;;;5024095;28;20832;-68
2023/03/11 06:38:23;;;;;;;4.67;1.83;;;;;;;;;;5025377;28;20173;-68
2023/03/11 06:40:48;;;;;;;8.07;1.43;;;;;;;;;;5024743;28;21231;-68
2023/03/11 06:43:14;;;;;;;3.97;1.77;;;;;;;;;;5025835;28;20185;-68
2023/03/11 06:45:39;;;;;;;4.57;1.60;;;;;;;;;;5023682;28;20210;-68
2023/03/11 06:48:04;;;;;;;3.13;1.00;;;;;;;;;;5026864;28;20193;-68
2023/03/11 06:50:30;;;;;;;5.07;1.53;;;;;;;;;;5025190;28;20184;-68
2023/03/11 06:52:56;;;;;;;8.40;1.53;;;;;;;;;;5039320;28;20599;-68
2023/03/11 06:55:21;;;;;;;4.40;1.20;;;;;;;;;;5027563;28;20188;-68
2023/03/11 06:57:46;;;;;;;2.53;1.30;;;;;;;;;;5027995;28;20422;-68
2023/03/11 07:00:12;;;;;;;7.43;1.83;;;;;;;;;;5028267;28;20204;-68
2023/03/11 07:02:38;;;;;;;2.63;1.10;;;;;;;;;;5028041;28;20193;-68
2023/03/11 07:05:03;;;;;;;3.50;1.43;;;;;;;;;;5028848;28;20529;-68
2023/03/11 07:07:28;;;;;;;3.80;1.30;;;;;;;;;;5025544;28;20635;-68
2023/03/11 07:09:55;;;;;;;3.83;1.30;;;;;;;;;;5024512;28;20184;-68
2023/03/11 07:12:21;;;;;;;3.77;1.17;;;;;;;;;;5025683;28;20192;-68
2023/03/11 07:14:47;;;;;;;2.97;1.00;;;;;;;;;;5025562;28;20624;-69
2023/03/11 07:17:12;;;;;;;4.17;1.20;;;;;;;;;;5026247;28;20720;-68
2023/03/11 07:19:37;;;;;;;1.83;1.27;;;;;;;;;;5024435;28;20273;-68
2023/03/11 07:22:02;;;;;;;3.10;1.27;;;;;;;;;;5024423;28;20801;-68
2023/03/11 07:24:28;;;;;;;6.23;1.43;;;;;;;;;;5023446;28;20177;-68
2023/03/11 07:26:53;;;;;;;4.50;1.20;;;;;;;;;;5026125;28;20177;-68
2023/03/11 07:29:19;;;;;;;4.27;1.23;;;;;;;;;;5014693;28;20644;-68
2023/03/11 07:31:44;;;;;;;4.30;1.10;;;;;;;;;;5020817;28;20222;-68
2023/03/11 07:34:10;;;;;;;2.30;1.07;;;;;;;;;;5022516;28;20187;-68
2023/03/11 07:36:36;;;;;;;4.57;1.20;;;;;;;;;;5021571;28;20256;-68
2023/03/11 07:39:03;;;;;;;4.73;1.03;;;;;;;;;;5023017;28;20427;-68
2023/03/11 07:41:29;;;;;;;4.97;1.17;;;;;;;;;;5023868;28;20706;-68
2023/03/11 07:43:55;;;;;;;5.07;1.13;;;;;;;;;;5026721;28;20519;-68
2023/03/11 07:46:21;;;;;;;1.80;0.97;;;;;;;;;;5027176;28;20568;-68
2023/03/11 07:48:47;;;;;;;3.70;1.27;;;;;;;;;;5027290;28;20492;-68
2023/03/11 07:51:15;;;;;;;5.80;1.73;;;;;;;;;;5027876;28;20518;-69
2023/03/11 07:53:41;;;;;;;6.53;1.73;;;;;;;;;;5025606;28;20211;-68
2023/03/11 07:56:07;;;;;;;6.47;1.10;;;;;;;;;;5021887;28;20886;-69
2023/03/11 07:58:33;;;;;;;3.63;1.60;;;;;;;;;;5016006;28;20191;-69
2023/03/11 08:01:21;;;;;;;5.70;1.40;;;;;;;;;;5017394;28;20470;-69
2023/03/11 08:03:48;;;;;;;3.00;0.90;;;;;;;;;;5018413;28;20212;-69
2023/03/11 08:06:21;;;;;;;2.70;0.90;;;;;;;;;;5024431;28;20450;-68
2023/03/11 08:08:47;;;;;;;1.67;0.87;;;;;;;;;;5023367;28;20429;-71
2023/03/11 08:11:13;;;;;;;2.20;1.00;;;;;;;;;;5025830;28;20463;-69
2023/03/11 08:13:39;;;;;;;2.20;1.10;;;;;;;;;;5020808;28;20472;-70
2023/03/11 08:16:05;;;;;;;3.63;1.33;;;;;;;;;;5020543;28;20709;-70
2023/03/11 08:18:31;;;;;;;2.30;0.90;;;;;;;;;;5021361;28;20439;-69
2023/03/11 08:20:56;;;;;;;2.57;1.00;;;;;;;;;;5026368;28;20471;-70
2023/03/11 08:23:21;;;;;;;4.53;1.00;;;;;;;;;;5028162;28;20188;-69
2023/03/11 08:25:47;;;;;;;1.67;0.93;;;;;;;;;;5021864;28;20569;-69
2023/03/11 08:28:12;;;;;;;2.63;0.90;;;;;;;;;;5019112;28;20184;-69
2023/03/11 08:30:37;;;;;;;3.83;1.13;;;;;;;;;;5028604;28;20271;-69
2023/03/11 08:33:02;;;;;;;4.27;1.27;;;;;;;;;;5028325;28;20636;-69
2023/03/11 08:35:28;;;;;;;10.50;1.57;;;;;;;;;;5028637;28;20188;-69
2023/03/11 08:37:53;;;;;;;6.97;1.37;;;;;;;;;;5024722;28;20188;-69
2023/03/11 08:40:18;;;;;;;3.17;1.10;;;;;;;;;;5025841;28;20740;-69
2023/03/11 08:42:44;;;;;;;6.63;1.67;;;;;;;;;;5028945;28;20214;-69
2023/03/11 08:45:09;;;;;;;4.63;0.90;;;;;;;;;;5027173;28;20512;-69
2023/03/11 08:47:37;;;;;;;4.40;0.90;;;;;;;;;;5016356;28;20195;-69
2023/03/11 08:50:08;;;;;;;7.30;1.00;;;;;;;;;;5021455;28;20256;-69
2023/03/11 08:52:34;;;;;;;4.83;1.10;;;;;;;;;;5021819;28;20510;-69
2023/03/11 08:54:59;;;;;;;6.60;1.43;;;;;;;;;;5015088;28;20901;-68
2023/03/11 08:57:24;;;;;;;4.90;1.20;;;;;;;;;;5017825;28;20234;-68
2023/03/11 08:59:50;;;;;;;5.07;0.80;;;;;;;;;;5015079;28;20610;-69
2023/03/11 09:02:15;;;;;;;3.50;1.07;;;;;;;;;;5016287;28;20274;-69
2023/03/11 09:04:41;;;;;;;2.27;1.00;;;;;;;;;;5015008;28;20230;-69
2023/03/11 09:07:06;;;;;;;2.60;1.30;;;;;;;;;;5015533;28;20193;-70
2023/03/11 09:09:31;;;;;;;2.53;1.17;;;;;;;;;;5015288;28;20177;-69
2023/03/11 09:11:56;;;;;;;2.27;0.90;;;;;;;;;;5018898;28;20296;-69
2023/03/11 09:14:22;;;;;;;4.03;0.80;;;;;;;;;;5019041;28;20540;-69
2023/03/11 09:16:47;;;;;;;2.93;1.20;;;;;;;;;;5018479;28;20349;-69
2023/03/11 09:19:12;;;;;;;4.40;1.03;;;;;;;;;;5015996;28;20564;-69
2023/03/11 09:21:37;;;;;;;4.70;1.37;;;;;;;;;;5018306;28;20209;-69
2023/03/11 09:24:03;;;;;;;5.10;1.37;;;;;;;;;;5013087;28;20169;-69
2023/03/11 09:26:29;;;;;;;2.10;1.10;;;;;;;;;;5019699;28;20695;-69
2023/03/11 09:28:54;;;;;;;2.03;1.23;;;;;;;;;;5020578;28;20204;-70
2023/03/11 09:31:23;;;;;;;6.90;1.10;;;;;;;;;;5028536;28;20447;-69
2023/03/11 09:33:51;;;;;;;7.57;1.33;;;;;;;;;;5013594;28;20188;-68
2023/03/11 09:36:17;;;;;;;2.03;1.23;;;;;;;;;;5017735;28;20431;-69
2023/03/11 09:38:43;;;;;;;5.83;1.20;;;;;;;;;;5016922;28;20431;-69
2023/03/11 09:41:23;;;;;;;3.80;1.30;;;;;;;;;;5017206;28;20481;-69
2023/03/11 09:44:24;;;;;;;7.00;1.70;;;;;;;;;;5019471;28;20431;-68
2023/03/11 09:47:04;;;;;;;2.57;1.20;;;;;;;;;;4963212;28;20487;-68
2023/03/11 09:49:59;;;;;;;3.87;1.50;;;;;;;;;;5012955;28;20431;-68
2023/03/11 09:52:29;;;;;;;2.30;1.30;;;;;;;;;;4931308;28;20977;-69
2023/03/11 09:54:54;;;;;;;5.20;1.40;;;;;;;;;;5017920;28;20428;-69
2023/03/11 09:57:24;;;;;;;4.30;1.07;;;;;;;;;;5023033;28;20427;-69
2023/03/11 09:59:49;;;;;;;3.10;1.10;;;;;;;;;;5020426;28;20208;-70
2023/03/11 10:02:16;;;;;;;4.43;1.10;;;;;;;;;;5017077;28;20906;-70
2023/03/11 10:04:48;;;;;;;4.30;1.20;;;;;;;;;;5016121;28;20172;-70
2023/03/11 10:07:20;;;;;;;2.93;1.27;;;;;;;;;;5022376;28;20439;-70
2023/03/11 10:09:45;;;;;;;6.17;1.10;;;;;;;;;;5011460;28;20525;-69
2023/03/11 10:12:39;;;;;;;2.40;0.80;;;;;;;;;;5018602;28;20826;-70
2023/03/11 10:15:23;;;;;;;3.40;1.17;;;;;;;;;;5002326;28;20181;-69
2023/03/11 10:17:51;;;;;;;2.37;1.10;;;;;;;;;;5006607;28;20454;-70
2023/03/11 10:20:35;;;;;;;5.90;1.33;;;;;;;;;;5018032;28;20466;-71
2023/03/11 10:23:15;;;;;;;5.03;1.50;;;;;;;;;;5023180;28;20453;-70
2023/03/11 10:25:41;;;;;;;4.53;1.33;;;;;;;;;;5022051;28;20426;-70
2023/03/11 10:28:11;;;;;;;2.77;1.13;;;;;;;;;;5019851;28;20839;-69
2023/03/11 10:30:42;;;;;;;2.90;1.10;;;;;;;;;;5026725;28;20211;-70
2023/03/11 10:33:10;;;;;;;5.90;1.53;;;;;;;;;;5015545;28;20438;-70
2023/03/11 10:35:38;;;;;;;3.40;1.20;;;;;;;;;;5025590;28;20440;-70
2023/03/11 10:38:20;;;;;;;5.40;0.83;;;;;;;;;;5028624;28;20438;-69
2023/03/11 10:40:47;;;;;;;4.40;1.13;;;;;;;;;;5025316;28;20447;-69
2023/03/11 10:43:17;;;;;;;7.80;1.30;;;;;;;;;;5024371;28;20465;-69
2023/03/11 10:45:44;;;;;;;8.40;1.20;;;;;;;;;;5020787;28;20431;-69
2023/03/11 10:48:14;;;;;;;4.97;1.40;;;;;;;;;;5024333;28;20423;-69
2023/03/11 10:50:46;;;;;;;8.43;1.40;;;;;;;;;;5022665;28;20749;-69
2023/03/11 10:53:15;;;;;;;5.83;1.30;;;;;;;;;;5023947;28;20435;-69
2023/03/11 10:55:59;;;;;;;4.10;1.10;;;;;;;;;;5026033;28;20435;-69
2023/03/11 10:58:26;;;;;;;3.80;1.40;;;;;;;;;;5026890;28;20465;-69
2023/03/11 11:01:00;;;;;;;1.10;0.80;;;;;;;;;;5026369;28;20454;-69
2023/03/11 11:03:26;;;;;;;5.93;1.10;;;;;;;;;;5028338;28;20431;-69
2023/03/11 11:05:58;;;;;;;2.53;1.27;;;;;;;;;;5022653;28;20442;-69
2023/03/11 11:08:24;;;;;;;3.67;1.83;;;;;;;;;;5024364;28;20181;-69
2023/03/11 11:10:54;;;;;;;4.50;0.93;;;;;;;;;;5025316;28;20955;-69
2023/03/11 11:13:20;;;;;;;6.63;1.27;;;;;;;;;;5024772;28;20194;-70
2023/03/11 11:15:46;;;;;;;5.17;1.07;;;;;;;;;;5024368;28;20459;-69
2023/03/11 11:18:16;;;;;;;4.40;1.07;;;;;;;;;;5021583;28;20469;-70
2023/03/11 11:20:53;;;;;;;4.10;1.07;;;;;;;;;;5026706;28;20276;-70
2023/03/11 11:23:45;;;;;;;5.50;1.47;;;;;;;;;;5023248;28;21119;-70
2023/03/11 11:26:16;;;;;;;3.70;0.90;;;;;;;;;;5021608;28;20514;-70
2023/03/11 11:28:41;;;;;;;3.73;1.00;;;;;;;;;;5019428;28;20431;-70
2023/03/11 11:31:18;;;;;;;2.17;0.90;;;;;;;;;;5024260;28;20744;-70
2023/03/11 11:33:54;;;;;;;6.27;0.80;;;;;;;;;;5017456;28;20176;-70
2023/03/11 11:36:23;;;;;;;4.10;0.90;;;;;;;;;;5022754;28;20438;-70
2023/03/11 11:38:49;;;;;;;4.77;1.10;;;;;;;;;;5017780;28;20434;-70
2023/03/11 11:41:17;;;;;;;10.93;3.10;;;;;;;;;;5018671;28;20944;-70
2023/03/11 11:43:52;;;;;;;7.80;2.10;;;;;;;;;;5024206;28;20439;-70
2023/03/11 11:46:18;;;;;;;18.10;6.10;;;;;;;;;;5025733;28;21011;-70
2023/03/11 11:48:48;;;;;;;8.57;4.57;;;;;;;;;;5024047;28;20422;-71
2023/03/11 11:51:24;;;;;;;7.00;1.10;;;;;;;;;;5026934;28;20237;-71
2023/03/11 11:53:55;;;;;;;8.47;3.83;;;;;;;;;;5024473;28;20430;-70
2023/03/11 11:56:22;;;;;;;5.93;1.73;;;;;;;;;;5040821;28;20439;-70
2023/03/11 11:58:47;;;;;;;2.93;1.30;;;;;;;;;;5020423;28;20458;-70
2023/03/11 12:01:15;;;;;;;3.90;1.20;;;;;;;;;;5023483;28;20985;-71
2023/03/11 12:03:55;;;;;;;8.93;1.10;;;;;;;;;;5020848;28;20211;-70
2023/03/11 12:06:36;;;;;;;5.10;1.43;;;;;;;;;;5024108;28;20436;-70
2023/03/11 12:09:23;;;;;;;11.90;2.77;;;;;;;;;;5021439;28;20462;-70
2023/03/11 12:12:03;;;;;;;8.67;1.20;;;;;;;;;;5026570;28;20447;-71
2023/03/11 12:14:34;;;;;;;5.33;1.20;;;;;;;;;;5023322;28;20500;-71
2023/03/11 12:17:00;;;;;;;2.83;1.30;;;;;;;;;;5022077;28;20435;-71
2023/03/11 12:19:31;;;;;;;2.60;1.10;;;;;;;;;;5019033;28;20452;-70
2023/03/11 12:22:15;;;;;;;3.17;1.67;;;;;;;;;;5020990;28;20450;-70
2023/03/11 12:24:59;;;;;;;4.20;1.83;;;;;;;;;;5031369;28;21039;-70
2023/03/11 12:27:31;;;;;;;4.97;1.40;;;;;;;;;;5011495;28;20999;-70
2023/03/11 12:30:19;;;;;;;2.43;1.10;;;;;;;;;;5012585;28;20467;-70
2023/03/11 12:32:53;;;;;;;2.80;1.20;;;;;;;;;;5024546;28;20450;-70
2023/03/11 12:35:21;;;;;;;1.70;1.20;;;;;;;;;;5044135;22;20516;-77
2023/03/11 12:37:54;;;;;;;5.53;1.20;;;;;;;;;;5041443;28;20442;-74
2023/03/11 12:40:38;;;;;;;3.97;1.23;;;;;;;;;;5034265;28;21033;-76
2023/03/11 12:43:04;;;;;;;4.50;1.07;;;;;;;;;;5047816;28;20441;-77
2023/03/11 12:45:49;;;;;;;4.13;1.30;;;;;;;;;;5047391;28;20437;-79
2023/03/11 12:48:23;;;;;;;1.50;0.87;;;;;;;;;;5040176;28;20659;-79
2023/03/11 12:50:49;;;;;;;3.30;1.10;;;;;;;;;;5036096;28;20946;-80
2023/03/11 12:53:17;;;;;;;3.60;1.10;;;;;;;;;;5035936;28;20452;-80
2023/03/11 12:56:01;;;;;;;5.73;1.10;;;;;;;;;;5039758;28;25813;-80
2023/03/11 12:58:39;;;;;;;3.73;1.20;;;;;;;;;;5038896;28;20505;-80
2023/03/11 13:01:07;;;;;;;2.50;1.00;;;;;;;;;;5050423;28;20962;-78
2023/03/11 13:03:48;;;;;;;2.67;0.93;;;;;;;;;;5047433;28;20535;-78
2023/03/11 13:06:13;;;;;;;6.60;0.80;;;;;;;;;;5046447;28;20454;-78
2023/03/11 13:08:47;;;;;;;2.60;0.83;;;;;;;;;;5047047;28;20431;-78
2023/03/11 13:11:30;;;;;;;2.73;1.10;;;;;;;;;;5048818;28;20269;-78
2023/03/11 13:14:26;;;;;;;2.53;1.00;;;;;;;;;;5048156;28;20430;-79
2023/03/11 13:16:51;;;;;;;3.43;0.80;;;;;;;;;;5033404;28;20441;-79
2023/03/11 13:19:26;;;;;;;3.77;0.70;;;;;;;;;;5048696;28;20434;-77
2023/03/11 13:21:53;;;;;;;2.70;1.03;;;;;;;;;;5045648;28;20470;-79
2023/03/11 13:24:18;;;;;;;2.87;0.80;;;;;;;;;;5049308;28;20492;-77
2023/03/11 13:26:55;;;;;;;6.70;1.30;;;;;;;;;;5042495;28;20846;-76
2023/03/11 13:29:39;;;;;;;6.00;1.57;;;;;;;;;;5037490;28;20186;-78
2023/03/11 13:32:25;;;;;;;5.60;1.53;;;;;;;;;;5056794;28;20437;-79
2023/03/11 13:34:59;;;;;;;4.03;1.60;;;;;;;;;;5053746;28;20886;-78
2023/03/11 13:37:24;;;;;;;9.10;2.17;;;;;;;;;;5048279;28;20432;-77
2023/03/11 13:39:53;;;;;;;3.80;1.60;;;;;;;;;;5043708;28;20465;-77
2023/03/11 13:42:42;;;;;;;6.83;2.87;;;;;;;;;;5043147;28;20176;-78
2023/03/11 13:45:15;;;;;;;6.03;2.90;;;;;;;;;;5028551;28;20479;-77
2023/03/11 13:47:43;;;;;;;3.57;1.43;;;;;;;;;;5052544;28;20409;-77
2023/03/11 13:50:14;;;;;;;3.77;1.20;;;;;;;;;;5050878;28;20477;-78
2023/03/11 13:52:54;;;;;;;1.80;0.90;;;;;;;;;;5052506;28;20418;-75
2023/03/11 13:55:20;;;;;;;3.67;0.90;;;;;;;;;;5048735;28;20442;-76
2023/03/11 13:57:53;;;;;;;2.77;0.80;;;;;;;;;;5051672;28;20450;-75
2023/03/11 14:00:22;;;;;;;4.20;1.23;;;;;;;;;;5051342;28;20472;-76
2023/03/11 14:02:55;;;;;;;3.53;1.10;;;;;;;;;;5056415;28;20512;-76
2023/03/11 14:05:30;;;;;;;1.50;0.80;;;;;;;;;;5053373;28;20429;-75
2023/03/11 14:08:09;;;;;;;1.63;0.70;;;;;;;;;;5055112;28;20432;-75
2023/03/11 14:10:35;;;;;;;3.10;1.00;;;;;;;;;;5052746;28;20471;-76
2023/03/11 14:13:04;;;;;;;1.47;0.73;;;;;;;;;;5053918;28;20823;-76
2023/03/11 14:15:32;;;;;;;3.30;0.80;;;;;;;;;;5052554;28;20192;-76
2023/03/11 14:18:17;;;;;;;4.07;2.03;;;;;;;;;;5043494;28;20443;-76
2023/03/11 14:20:45;;;;;;;9.27;2.07;;;;;;;;;;5050174;28;20461;-76
2023/03/11 14:23:15;;;;;;;8.03;1.70;;;;;;;;;;5055212;28;20446;-76
2023/03/11 14:25:41;;;;;;;2.60;1.00;;;;;;;;;;5055309;28;20921;-75
2023/03/11 14:28:06;;;;;;;2.20;1.17;;;;;;;;;;5051713;28;20457;-75
2023/03/11 14:30:33;;;;;;;5.37;1.00;;;;;;;;;;5036911;28;20250;-76
2023/03/11 14:33:04;;;;;;;2.63;0.97;;;;;;;;;;5051396;28;20194;-76
2023/03/11 14:35:30;;;;;;;3.60;0.80;;;;;;;;;;5047939;28;20477;-76
2023/03/11 14:37:56;;;;;;;4.10;1.33;;;;;;;;;;5052480;28;20525;-76
2023/03/11 14:40:24;;;;;;;2.40;1.00;;;;;;;;;;5055310;28;21002;-76
2023/03/11 14:42:52;;;;;;;6.63;0.90;;;;;;;;;;5052266;28;20226;-77
2023/03/11 14:45:19;;;;;;;6.10;0.93;;;;;;;;;;5049021;28;20974;-77
2023/03/11 14:47:47;;;;;;;2.57;1.00;;;;;;;;;;5050144;28;20449;-77
2023/03/11 14:50:16;;;;;;;10.00;1.00;;;;;;;;;;5050733;28;20411;-77